Time;durP1;ratioP1;P1;durP2;ratioP2;P2;SDS_P1;SDS_P2;PMS_P1;PMS_P2;Temp;Humidity;BMP_temperature;BMP_pressure;BME280_temperature;BME280_humidity;BME280_pressure;Samples;Min_cycle;Max_cycle;Signal;HPM_P1;HPM_P2
2022/05/11 00:01:21;;;;;;;14.10;1.67;;;11.90;72.70;;;;;;5049734;28;20061;-81
2022/05/11 00:03:49;;;;;;;14.77;2.13;;;11.90;72.80;;;;;;5017373;28;20041;-81
2022/05/11 00:06:17;;;;;;;14.05;2.15;;;11.80;72.80;;;;;;5048791;28;20045;-81
2022/05/11 00:08:44;;;;;;;11.18;2.05;;;11.90;73.00;;;;;;5047828;28;20044;-81
2022/05/11 00:11:14;;;;;;;13.55;2.20;;;11.90;73.00;;;;;;5049828;28;20045;-81
2022/05/11 00:13:42;;;;;;;11.82;1.83;;;11.90;73.00;;;;;;5026904;28;20053;-80
2022/05/11 00:16:10;;;;;;;16.83;1.85;;;11.80;73.10;;;;;;5051046;28;20056;-81
2022/05/11 00:18:39;;;;;;;9.05;1.55;;;11.80;73.20;;;;;;5050452;28;20410;-81
2022/05/11 00:21:07;;;;;;;13.68;2.03;;;11.80;73.20;;;;;;5047106;28;20057;-80
2022/05/11 00:23:35;;;;;;;11.10;1.65;;;11.80;73.20;;;;;;5051079;28;20041;-81
2022/05/11 00:26:03;;;;;;;15.88;2.13;;;11.80;73.30;;;;;;5050166;28;20063;-81
2022/05/11 00:28:30;;;;;;;14.90;2.10;;;11.80;73.40;;;;;;5031924;28;20064;-82
2022/05/11 00:30:58;;;;;;;7.68;1.33;;;11.80;73.40;;;;;;5051490;28;20089;-80
2022/05/11 00:33:26;;;;;;;13.95;1.85;;;11.80;73.50;;;;;;5041001;28;20045;-81
2022/05/11 00:35:53;;;;;;;15.82;2.38;;;11.80;73.50;;;;;;5056617;28;20049;-81
2022/05/11 00:38:24;;;;;;;16.60;1.80;;;11.80;73.40;;;;;;5049837;28;20033;-81
2022/05/11 00:40:58;;;;;;;14.80;1.80;;;11.80;73.60;;;;;;5050934;28;20041;-81
2022/05/11 00:43:31;;;;;;;14.80;2.28;;;11.80;73.50;;;;;;5050515;28;20044;-81
2022/05/11 00:46:17;;;;;;;15.03;1.73;;;11.80;73.60;;;;;;5052774;28;20056;-81
2022/05/11 00:51:47;;;;;;;13.23;1.98;;;11.80;73.80;;;;;;5030622;28;20056;-80
2022/05/11 00:54:17;;;;;;;13.95;1.65;;;11.80;73.90;;;;;;5033469;28;20041;-80
2022/05/11 00:56:53;;;;;;;11.38;1.88;;;11.80;74.00;;;;;;5051490;28;20513;-80
2022/05/11 00:59:25;;;;;;;12.52;2.13;;;11.80;73.90;;;;;;5034339;28;20487;-81
2022/05/11 01:01:56;;;;;;;17.05;2.40;;;11.80;74.10;;;;;;5036408;28;20048;-80
2022/05/11 01:04:25;;;;;;;13.45;1.95;;;11.80;74.20;;;;;;5052864;28;20049;-81
2022/05/11 01:06:53;;;;;;;13.02;1.83;;;11.70;74.10;;;;;;5051722;28;20056;-81
2022/05/11 01:09:21;;;;;;;12.73;1.98;;;11.70;74.20;;;;;;5034670;28;20052;-80
2022/05/11 01:11:53;;;;;;;14.00;1.85;;;11.70;74.30;;;;;;5052126;28;20037;-80
2022/05/11 01:14:28;;;;;;;11.27;1.80;;;11.60;74.20;;;;;;5042294;28;20045;-81
2022/05/11 01:16:57;;;;;;;9.57;1.60;;;11.60;74.40;;;;;;5053762;28;20032;-81
2022/05/11 01:19:35;;;;;;;14.57;2.15;;;11.60;74.60;;;;;;5053910;28;20044;-81
2022/05/11 01:22:31;;;;;;;17.17;1.88;;;11.60;74.70;;;;;;5050241;28;20045;-81
2022/05/11 01:25:02;;;;;;;10.50;1.83;;;11.50;75.00;;;;;;5009919;28;20548;-81
2022/05/11 01:27:39;;;;;;;16.92;1.67;;;11.40;75.00;;;;;;5053339;28;20044;-81
2022/05/11 01:30:07;;;;;;;14.18;1.80;;;11.40;75.40;;;;;;5051709;28;20498;-81
2022/05/11 01:32:35;;;;;;;15.27;2.40;;;11.40;75.40;;;;;;5052026;28;20103;-81
2022/05/11 01:35:31;;;;;;;18.75;1.83;;;11.40;75.50;;;;;;5054145;28;20548;-81
2022/05/11 01:38:04;;;;;;;14.57;2.00;;;11.40;75.50;;;;;;5048991;28;20041;-81
2022/05/11 01:40:31;;;;;;;15.55;2.22;;;11.30;75.60;;;;;;5052953;28;20548;-81
2022/05/11 01:42:59;;;;;;;15.07;2.05;;;11.30;75.90;;;;;;5060437;28;20045;-81
2022/05/11 01:45:27;;;;;;;13.60;2.00;;;11.40;75.90;;;;;;5058617;28;20056;-81
2022/05/11 01:47:56;;;;;;;14.68;1.70;;;11.30;75.80;;;;;;5035438;28;20076;-81
2022/05/11 01:50:26;;;;;;;11.45;1.67;;;11.30;75.90;;;;;;5052318;28;20059;-81
2022/05/11 01:52:54;;;;;;;13.23;2.15;;;11.40;75.90;;;;;;5049952;28;20048;-81
2022/05/11 01:55:21;;;;;;;14.00;2.10;;;11.30;75.90;;;;;;5052063;28;20049;-81
2022/05/11 01:57:50;;;;;;;11.30;1.85;;;11.40;76.10;;;;;;5037500;28;20053;-81
2022/05/11 02:00:18;;;;;;;10.20;1.42;;;11.40;76.00;;;;;;5052394;28;20410;-81
2022/05/11 02:02:46;;;;;;;11.88;1.85;;;11.30;76.00;;;;;;5052621;28;20458;-81
2022/05/11 02:07:59;;;;;;;14.00;1.77;;;11.40;75.80;;;;;;5040470;28;20064;-80
2022/05/11 02:10:28;;;;;;;15.57;2.05;;;11.40;75.90;;;;;;5047168;28;21002;-80
2022/05/11 02:12:58;;;;;;;12.70;2.00;;;11.30;75.90;;;;;;5049113;28;20046;-81
2022/05/11 02:15:26;;;;;;;11.18;2.03;;;11.30;75.90;;;;;;5051963;28;20052;-81
2022/05/11 02:17:55;;;;;;;11.65;2.25;;;11.30;76.10;;;;;;5034936;28;20053;-81
2022/05/11 02:20:23;;;;;;;10.23;1.70;;;11.30;76.10;;;;;;5049929;28;20410;-81
2022/05/11 02:22:52;;;;;;;10.50;1.77;;;11.30;76.40;;;;;;5034873;28;20071;-80
2022/05/11 02:25:20;;;;;;;14.05;1.92;;;11.30;76.30;;;;;;5033627;28;20120;-81
2022/05/11 02:27:49;;;;;;;15.90;2.08;;;11.30;76.70;;;;;;5049523;28;20040;-81
2022/05/11 02:30:26;;;;;;;17.10;1.98;;;11.30;76.80;;;;;;5033904;28;20056;-81
2022/05/11 02:32:55;;;;;;;19.90;2.00;;;11.30;77.10;;;;;;5056299;28;20518;-80
2022/05/11 02:35:24;;;;;;;16.05;2.00;;;11.30;77.00;;;;;;5018219;28;20053;-80
2022/05/11 02:38:01;;;;;;;15.40;1.90;;;11.20;77.00;;;;;;5035665;28;20402;-80
2022/05/11 02:40:33;;;;;;;12.15;1.70;;;11.30;77.00;;;;;;5051771;28;20037;-81
2022/05/11 02:43:02;;;;;;;15.73;2.13;;;11.20;77.10;;;;;;5049272;28;20406;-81
2022/05/11 02:45:31;;;;;;;15.02;2.33;;;11.20;77.30;;;;;;5054037;28;20070;-81
2022/05/11 02:48:02;;;;;;;11.35;1.75;;;11.20;77.30;;;;;;5051395;28;20059;-81
2022/05/11 02:50:34;;;;;;;11.35;2.03;;;11.20;77.30;;;;;;5051359;28;20049;-81
2022/05/11 02:53:03;;;;;;;13.88;2.08;;;11.20;77.30;;;;;;5050510;28;20513;-81
2022/05/11 02:55:30;;;;;;;14.82;1.90;;;11.20;77.50;;;;;;5027984;28;20037;-81
2022/05/11 02:57:59;;;;;;;12.88;1.85;;;11.10;77.40;;;;;;5051661;28;20406;-81
2022/05/11 03:00:26;;;;;;;11.77;1.65;;;11.10;77.50;;;;;;5033757;28;20485;-81
2022/05/11 03:02:54;;;;;;;8.45;1.38;;;11.10;77.40;;;;;;5051662;28;20533;-81
2022/05/11 03:05:21;;;;;;;12.60;1.90;;;11.10;77.70;;;;;;5049905;28;20053;-81
2022/05/11 03:07:49;;;;;;;14.27;2.13;;;11.00;77.70;;;;;;5048151;28;20052;-81
2022/05/11 03:10:17;;;;;;;12.18;1.70;;;11.00;77.80;;;;;;5051056;28;20517;-81
2022/05/11 03:12:44;;;;;;;20.23;2.38;;;11.00;77.90;;;;;;5043551;28;20045;-81
2022/05/11 03:15:12;;;;;;;11.60;1.48;;;11.00;77.80;;;;;;5051529;28;20045;-81
2022/05/11 03:17:40;;;;;;;16.08;1.77;;;11.00;78.10;;;;;;5017780;28;20045;-81
2022/05/11 03:20:10;;;;;;;9.48;1.55;;;11.00;78.10;;;;;;5050269;28;20037;-81
2022/05/11 03:22:38;;;;;;;15.07;1.90;;;11.00;78.20;;;;;;5022184;28;20046;-81
2022/05/11 03:25:08;;;;;;;9.57;1.92;;;11.00;78.10;;;;;;5010577;28;20418;-81
2022/05/11 03:27:37;;;;;;;12.18;1.88;;;11.00;78.20;;;;;;5029844;28;20445;-80
2022/05/11 03:30:06;;;;;;;12.48;1.95;;;11.00;78.20;;;;;;5012548;28;20389;-81
2022/05/11 03:35:20;;;;;;;11.60;1.70;;;11.10;78.10;;;;;;5032985;28;20414;-81
2022/05/11 03:37:48;;;;;;;17.02;2.28;;;11.10;78.30;;;;;;5019755;28;20056;-81
2022/05/11 03:40:15;;;;;;;12.75;1.80;;;11.10;78.30;;;;;;5043794;28;20045;-80
2022/05/11 03:42:43;;;;;;;12.98;1.88;;;11.10;78.50;;;;;;5033390;28;20045;-81
2022/05/11 03:45:17;;;;;;;11.05;1.77;;;11.10;78.30;;;;;;5029489;28;20068;-81
2022/05/11 03:47:45;;;;;;;11.48;1.90;;;11.10;78.30;;;;;;5031945;28;20052;-81
2022/05/11 03:50:15;;;;;;;11.93;2.00;;;11.10;78.40;;;;;;5028649;28;20400;-81
2022/05/11 03:52:43;;;;;;;13.00;2.17;;;11.10;78.30;;;;;;5014261;28;20045;-81
2022/05/11 03:55:12;;;;;;;15.38;1.80;;;11.20;78.30;;;;;;5029189;28;20054;-80
2022/05/11 03:57:41;;;;;;;14.50;1.88;;;11.20;78.20;;;;;;5022469;28;20049;-81
2022/05/11 04:00:12;;;;;;;13.38;1.90;;;11.20;78.50;;;;;;5022092;28;20044;-81
2022/05/11 04:02:41;;;;;;;11.48;1.80;;;11.20;78.80;;;;;;5013880;28;20056;-81
2022/05/11 04:05:11;;;;;;;13.65;1.60;;;11.20;78.70;;;;;;5023837;28;20383;-81
2022/05/11 04:07:40;;;;;;;15.70;2.63;;;11.20;78.70;;;;;;5011255;28;20048;-79
2022/05/11 04:10:08;;;;;;;11.57;1.75;;;11.20;78.80;;;;;;5031328;28;20064;-80
2022/05/11 04:12:36;;;;;;;12.77;1.92;;;11.20;78.80;;;;;;5030927;28;20407;-80
2022/05/11 04:15:04;;;;;;;13.32;2.08;;;11.20;79.00;;;;;;5033464;28;20052;-79
2022/05/11 04:17:32;;;;;;;15.80;2.33;;;11.20;79.10;;;;;;5030966;28;20508;-80
2022/05/11 04:20:01;;;;;;;18.20;1.98;;;11.20;79.20;;;;;;5014809;28;20048;-80
2022/05/11 04:22:29;;;;;;;14.05;2.00;;;11.20;79.20;;;;;;5024357;28;20533;-80
2022/05/11 04:24:57;;;;;;;10.95;1.77;;;11.20;79.40;;;;;;5055124;28;20045;-81
2022/05/11 04:27:25;;;;;;;15.70;1.80;;;11.30;80.00;;;;;;5036597;28;20124;-80
2022/05/11 04:29:52;;;;;;;13.82;1.27;;;11.30;80.20;;;;;;5055274;28;20040;-80
2022/05/11 04:32:20;;;;;;;7.88;1.35;;;11.30;80.30;;;;;;5035564;28;20405;-80
2022/05/11 04:34:48;;;;;;;11.90;1.42;;;11.30;80.60;;;;;;5053524;28;20379;-81
2022/05/11 04:37:15;;;;;;;12.88;2.15;;;11.30;80.90;;;;;;5053456;28;20045;-81
2022/05/11 04:39:43;;;;;;;10.70;1.50;;;11.30;81.10;;;;;;5036116;28;20049;-80
2022/05/11 04:42:11;;;;;;;10.88;1.73;;;11.20;81.30;;;;;;5055374;28;20490;-81
2022/05/11 04:44:39;;;;;;;13.77;1.75;;;11.20;81.30;;;;;;5054505;28;20049;-81
2022/05/11 04:47:12;;;;;;;12.90;1.75;;;11.30;81.70;;;;;;5036989;28;20517;-81
2022/05/11 04:49:40;;;;;;;11.88;1.58;;;11.30;81.80;;;;;;5035071;28;20041;-81
2022/05/11 04:52:11;;;;;;;10.32;1.55;;;11.30;82.00;;;;;;5054919;28;20053;-81
2022/05/11 04:54:44;;;;;;;8.80;1.52;;;11.30;82.00;;;;;;5050502;28;20041;-81
2022/05/11 04:57:12;;;;;;;10.10;1.73;;;11.30;82.20;;;;;;5034894;28;20395;-80
2022/05/11 04:59:40;;;;;;;10.90;1.98;;;11.30;82.40;;;;;;5051514;28;20044;-81
2022/05/11 05:02:15;;;;;;;9.05;1.63;;;11.30;82.30;;;;;;5052906;28;20075;-81
2022/05/11 05:04:43;;;;;;;14.38;1.45;;;11.30;82.60;;;;;;5048942;28;20057;-81
2022/05/11 05:07:10;;;;;;;16.73;2.08;;;11.30;82.70;;;;;;5054248;28;20415;-81
2022/05/11 05:09:38;;;;;;;9.18;1.40;;;11.20;83.00;;;;;;5034593;28;20418;-81
2022/05/11 05:12:06;;;;;;;8.43;1.10;;;11.20;82.90;;;;;;5053888;28;20052;-81
2022/05/11 05:14:34;;;;;;;8.85;1.40;;;11.20;83.20;;;;;;5056251;28;20041;-81
2022/05/11 05:17:07;;;;;;;13.00;2.45;;;11.20;83.30;;;;;;5040296;28;20056;-81
2022/05/11 05:19:38;;;;;;;4.88;0.88;;;11.20;83.30;;;;;;5069905;28;20506;-81
2022/05/11 05:22:06;;;;;;;14.30;2.17;;;11.20;83.40;;;;;;5043353;28;20096;-81
2022/05/11 05:24:34;;;;;;;7.60;1.90;;;11.20;83.50;;;;;;5034313;28;20397;-81
2022/05/11 05:27:02;;;;;;;12.48;1.95;;;11.20;83.60;;;;;;5035065;28;20045;-81
2022/05/11 05:32:16;;;;;;;9.38;1.58;;;11.10;83.70;;;;;;5032657;28;20396;-81
2022/05/11 05:34:44;;;;;;;7.55;1.52;;;11.10;83.80;;;;;;5019443;28;20058;-81
2022/05/11 05:37:13;;;;;;;8.02;1.80;;;11.10;83.80;;;;;;5043020;28;20064;-81
2022/05/11 05:39:41;;;;;;;8.05;1.35;;;11.10;83.80;;;;;;5036159;28;20403;-81
2022/05/11 05:42:15;;;;;;;7.40;1.45;;;11.10;83.90;;;;;;5034310;28;20056;-81
2022/05/11 05:44:43;;;;;;;7.20;1.60;;;11.10;84.00;;;;;;5034172;28;20065;-79
2022/05/11 05:47:11;;;;;;;10.40;1.98;;;11.10;84.20;;;;;;5014429;28;20045;-79
2022/05/11 05:49:39;;;;;;;9.18;1.23;;;11.00;84.40;;;;;;5016066;28;20056;-80
2022/05/11 05:52:07;;;;;;;7.55;1.38;;;11.00;84.40;;;;;;5031994;28;20049;-80
2022/05/11 05:54:36;;;;;;;10.00;1.60;;;11.00;84.60;;;;;;5032006;28;20049;-79
2022/05/11 05:57:04;;;;;;;11.35;1.50;;;11.00;84.70;;;;;;5033850;28;20061;-80
2022/05/11 05:59:32;;;;;;;11.35;2.33;;;11.00;84.80;;;;;;5035955;28;20042;-79
2022/05/11 06:01:59;;;;;;;10.40;1.67;;;11.00;85.00;;;;;;5018498;28;20070;-80
2022/05/11 06:04:27;;;;;;;9.30;1.60;;;11.00;85.00;;;;;;5002828;28;20479;-80
2022/05/11 06:06:55;;;;;;;6.03;1.60;;;11.00;85.10;;;;;;5031957;28;20387;-80
2022/05/11 06:09:23;;;;;;;6.32;2.00;;;11.00;85.10;;;;;;5018627;28;20052;-80
2022/05/11 06:11:50;;;;;;;9.48;1.90;;;11.00;85.30;;;;;;5031772;28;20046;-80
2022/05/11 06:14:18;;;;;;;8.50;1.85;;;11.00;85.20;;;;;;5015296;28;20146;-80
2022/05/11 06:16:45;;;;;;;11.25;1.42;;;11.00;85.30;;;;;;5040942;28;20049;-79
2022/05/11 06:19:13;;;;;;;12.35;1.90;;;11.00;85.30;;;;;;5049280;28;20034;-87
2022/05/11 06:21:41;;;;;;;6.88;1.65;;;11.00;85.40;;;;;;5050685;28;20060;-80
2022/05/11 06:24:08;;;;;;;5.30;1.50;;;11.00;85.50;;;;;;5052798;28;20063;-80
2022/05/11 06:26:36;;;;;;;6.43;1.45;;;11.00;85.60;;;;;;5053796;28;20045;-79
2022/05/11 06:29:23;;;;;;;5.80;1.73;;;11.00;85.60;;;;;;5045861;28;20051;-79
2022/05/11 06:31:51;;;;;;;9.50;1.83;;;11.00;85.80;;;;;;5048673;28;20397;-79
2022/05/11 06:34:19;;;;;;;11.05;1.50;;;11.00;85.70;;;;;;5052668;28;20045;-79
2022/05/11 06:36:46;;;;;;;4.30;1.20;;;10.90;85.90;;;;;;5053843;28;20052;-79
2022/05/11 06:39:14;;;;;;;6.40;1.63;;;11.00;85.90;;;;;;5049287;28;20056;-78
2022/05/11 06:41:43;;;;;;;5.50;1.60;;;10.90;85.90;;;;;;5024725;28;20059;-78
2022/05/11 06:44:11;;;;;;;5.63;1.40;;;11.00;85.90;;;;;;5055031;28;20048;-78
2022/05/11 06:46:38;;;;;;;7.78;1.50;;;10.90;86.10;;;;;;5054318;28;20067;-79
2022/05/11 06:49:06;;;;;;;5.68;1.50;;;10.90;86.00;;;;;;5057910;28;20045;-79
2022/05/11 06:51:34;;;;;;;8.52;2.03;;;10.90;86.10;;;;;;5048562;28;20048;-79
2022/05/11 06:59:34;;;;;;;8.25;1.65;;;11.00;86.40;;;;;;5040976;28;20052;-80
2022/05/11 07:02:06;;;;;;;7.63;1.95;;;11.00;86.60;;;;;;5059437;28;20441;-80
2022/05/11 07:04:35;;;;;;;10.70;1.80;;;11.00;86.60;;;;;;5036818;28;20045;-80
2022/05/11 07:07:05;;;;;;;6.82;1.70;;;11.00;86.60;;;;;;5050449;28;20060;-80
2022/05/11 07:09:34;;;;;;;6.28;1.23;;;11.00;86.70;;;;;;5057071;28;20486;-79
2022/05/11 07:12:18;;;;;;;9.85;1.60;;;11.00;86.80;;;;;;5058426;28;20047;-80
2022/05/11 07:14:54;;;;;;;4.20;1.13;;;10.90;86.80;;;;;;5041382;28;20079;-80
2022/05/11 07:17:27;;;;;;;7.35;1.33;;;10.90;86.80;;;;;;5052562;28;20486;-80
2022/05/11 07:19:54;;;;;;;3.35;1.00;;;10.90;86.70;;;;;;5040613;28;20518;-80
2022/05/11 07:22:22;;;;;;;6.30;1.10;;;10.90;86.80;;;;;;5049478;28;20045;-80
2022/05/11 07:24:50;;;;;;;8.00;1.23;;;10.90;86.70;;;;;;5052316;28;20041;-79
2022/05/11 07:27:18;;;;;;;5.55;1.33;;;11.00;86.80;;;;;;5056496;28;20539;-80
2022/05/11 07:29:46;;;;;;;5.72;1.25;;;10.90;86.80;;;;;;5035171;28;20052;-80
2022/05/11 07:32:14;;;;;;;6.10;1.30;;;11.00;86.80;;;;;;5063495;28;20045;-80
2022/05/11 07:34:41;;;;;;;7.40;1.27;;;11.00;86.80;;;;;;5060771;28;20041;-80
2022/05/11 07:37:09;;;;;;;6.18;1.42;;;11.00;86.80;;;;;;5052892;28;20052;-80
2022/05/11 07:39:37;;;;;;;9.68;1.58;;;11.10;86.80;;;;;;5051654;28;20048;-80
2022/05/11 07:42:05;;;;;;;9.68;1.55;;;11.10;86.70;;;;;;5054566;28;20048;-80
2022/05/11 07:44:33;;;;;;;6.45;1.60;;;11.10;86.80;;;;;;5045132;28;20041;-80
2022/05/11 07:47:01;;;;;;;8.18;1.80;;;11.20;86.90;;;;;;5058360;28;20049;-80
2022/05/11 07:49:29;;;;;;;6.28;1.75;;;11.20;86.90;;;;;;5052913;28;20040;-81
2022/05/11 07:51:56;;;;;;;9.45;2.40;;;11.20;86.90;;;;;;5052607;28;20041;-81
2022/05/11 07:54:24;;;;;;;6.28;1.73;;;11.20;86.90;;;;;;5053394;28;20044;-80
2022/05/11 07:59:56;;;;;;;9.68;2.03;;;11.30;87.00;;;;;;5056737;28;20041;-81
2022/05/11 08:02:29;;;;;;;5.95;1.77;;;11.30;87.00;;;;;;5038617;28;20037;-81
2022/05/11 08:04:59;;;;;;;6.35;1.70;;;11.40;86.90;;;;;;5055880;28;20048;-81
2022/05/11 08:07:34;;;;;;;6.88;1.60;;;11.60;86.90;;;;;;5055870;28;20351;-82
2022/05/11 08:10:11;;;;;;;6.03;1.73;;;11.70;86.70;;;;;;5054948;28;20060;-81
2022/05/11 08:12:39;;;;;;;9.30;1.40;;;11.80;86.60;;;;;;5055941;28;20398;-80
2022/05/11 08:15:07;;;;;;;3.13;1.40;;;11.80;86.50;;;;;;5038144;28;20066;-81
2022/05/11 08:17:36;;;;;;;3.05;1.60;;;11.80;86.40;;;;;;5056567;28;20037;-80
2022/05/11 08:20:09;;;;;;;4.68;1.42;;;11.90;86.20;;;;;;5056342;28;20052;-80
2022/05/11 08:22:38;;;;;;;4.68;1.48;;;12.00;86.20;;;;;;5055968;28;20068;-81
2022/05/11 08:25:06;;;;;;;3.13;1.05;;;12.00;86.10;;;;;;5055888;28;20518;-80
2022/05/11 08:27:34;;;;;;;2.60;1.13;;;12.00;85.90;;;;;;5055899;28;20041;-81
2022/05/11 08:36:03;;;;;;;2.97;1.27;;;12.20;85.80;;;;;;5056209;28;20056;-80
2022/05/11 08:38:34;;;;;;;2.35;1.10;;;12.30;85.80;;;;;;5037638;28;20052;-81
2022/05/11 08:41:18;;;;;;;2.78;1.27;;;12.30;85.70;;;;;;5055803;28;20056;-81
2022/05/11 08:43:49;;;;;;;3.25;1.20;;;12.30;85.60;;;;;;5055527;28;20390;-80
2022/05/11 08:46:51;;;;;;;3.17;1.10;;;12.30;85.50;;;;;;5055525;28;20049;-80
2022/05/11 08:49:40;;;;;;;2.65;1.10;;;12.30;85.50;;;;;;5035769;28;20509;-80
2022/05/11 08:52:24;;;;;;;4.30;1.02;;;12.30;85.30;;;;;;5036047;28;20052;-82
2022/05/11 08:55:07;;;;;;;2.10;0.90;;;12.20;85.30;;;;;;5053326;28;20546;-82
2022/05/11 08:57:36;;;;;;;1.87;0.70;;;12.20;85.30;;;;;;5054148;28;20045;-79
2022/05/11 09:00:11;;;;;;;2.65;0.90;;;12.10;85.50;;;;;;5054943;28;20767;-83
2022/05/11 09:02:55;;;;;;;1.65;0.90;;;12.10;85.60;;;;;;5056061;28;20056;-82
2022/05/11 09:05:26;;;;;;;1.30;0.90;;;12.00;85.70;;;;;;5054741;28;20052;-83
2022/05/11 09:07:55;;;;;;;2.65;0.95;;;12.00;85.80;;;;;;5054451;28;20045;-81
2022/05/11 09:10:33;;;;;;;3.75;1.30;;;12.10;85.90;;;;;;5055146;28;20044;-81
2022/05/11 09:13:13;;;;;;;1.30;0.70;;;12.10;86.00;;;;;;5056586;28;20083;-81
2022/05/11 09:15:56;;;;;;;1.33;0.80;;;12.10;86.00;;;;;;5063451;28;20047;-81
2022/05/11 09:18:39;;;;;;;1.75;0.82;;;12.20;86.00;;;;;;5054566;28;20064;-81
2022/05/11 09:21:29;;;;;;;1.88;0.52;;;12.20;86.00;;;;;;5048133;28;20060;-81
2022/05/11 09:24:29;;;;;;;2.38;0.93;;;12.20;86.00;;;;;;5003716;28;20057;-82
2022/05/11 09:27:22;;;;;;;1.83;0.90;;;12.20;85.90;;;;;;5036853;28;20045;-81
2022/05/11 09:30:01;;;;;;;1.88;0.98;;;12.20;86.00;;;;;;5046706;28;20037;-81
2022/05/11 09:32:38;;;;;;;1.23;0.70;;;12.20;86.10;;;;;;5037350;28;20045;-80
2022/05/11 09:35:23;;;;;;;1.85;0.80;;;12.30;85.90;;;;;;5038479;28;20487;-83
2022/05/11 09:38:27;;;;;;;1.20;0.70;;;12.40;85.70;;;;;;5035280;28;20052;-81
2022/05/11 09:40:59;;;;;;;2.85;0.93;;;12.50;85.70;;;;;;5034403;28;20069;-80
2022/05/11 09:43:37;;;;;;;1.05;0.63;;;12.40;85.40;;;;;;5034548;28;20045;-80
2022/05/11 09:46:28;;;;;;;1.45;1.00;;;12.30;85.30;;;;;;5037395;28;20046;-81
2022/05/11 09:49:24;;;;;;;3.10;1.30;;;12.30;85.50;;;;;;5039971;28;20065;-81
2022/05/11 09:51:57;;;;;;;2.25;1.00;;;12.30;85.70;;;;;;5052098;28;20451;-82
2022/05/11 09:54:46;;;;;;;2.25;1.20;;;12.30;85.80;;;;;;5039806;28;20398;-81
2022/05/11 09:57:20;;;;;;;2.58;1.10;;;12.40;85.80;;;;;;5022985;28;20064;-81
2022/05/11 09:59:50;;;;;;;2.63;1.17;;;12.40;85.80;;;;;;5035203;28;20438;-80
2022/05/11 10:02:36;;;;;;;1.15;0.80;;;12.50;85.70;;;;;;5034249;28;20520;-81
2022/05/11 10:05:26;;;;;;;2.25;0.80;;;12.60;85.80;;;;;;5035288;28;20076;-81
2022/05/11 10:08:03;;;;;;;4.45;1.00;;;12.70;85.70;;;;;;5034755;28;20064;-81
2022/05/11 10:10:42;;;;;;;1.73;0.75;;;12.80;85.50;;;;;;5035439;28;20054;-80
2022/05/11 10:13:13;;;;;;;1.27;0.68;;;12.90;85.40;;;;;;5035099;28;20049;-81
2022/05/11 10:25:04;;;;;;;1.08;0.55;;;13.30;83.70;;;;;;5026822;28;20406;-82
2022/05/11 10:27:46;;;;;;;0.50;0.35;;;13.30;83.50;;;;;;5032455;28;20046;-80
2022/05/11 10:30:38;;;;;;;1.10;0.50;;;13.30;83.30;;;;;;5000902;28;20050;-79
2022/05/11 10:33:20;;;;;;;0.68;0.60;;;13.30;83.10;;;;;;5020723;28;20403;-79
2022/05/11 10:36:02;;;;;;;0.57;0.10;;;13.40;83.00;;;;;;5033486;28;20289;-81
2022/05/11 10:39:11;;;;;;;1.90;0.28;;;13.40;82.80;;;;;;5032567;28;20735;-81
2022/05/11 10:41:57;;;;;;;1.00;0.20;;;13.40;81.80;;;;;;4994324;28;20049;-81
2022/05/11 10:44:34;;;;;;;2.00;0.63;;;13.30;81.60;;;;;;5019004;28;20075;-82
2022/05/11 10:47:11;;;;;;;0.20;0.00;;;13.10;81.70;;;;;;5034800;28;20041;-81
2022/05/11 10:49:59;;;;;;;0.95;0.30;;;12.90;81.70;;;;;;5053492;28;20060;-82
2022/05/11 10:53:06;;;;;;;0.20;0.10;;;12.60;80.80;;;;;;5052891;28;20430;-81
2022/05/11 10:56:00;;;;;;;0.10;0.10;;;12.40;80.70;;;;;;4999181;28;20046;-81
2022/05/11 10:58:37;;;;;;;0.50;0.20;;;12.30;81.00;;;;;;4990821;28;20046;-81
2022/05/11 11:01:09;;;;;;;1.05;0.20;;;12.30;81.10;;;;;;4989883;28;20554;-80
2022/05/11 11:03:52;;;;;;;1.60;0.50;;;12.30;80.80;;;;;;4991294;28;20046;-80
2022/05/11 11:07:14;;;;;;;1.92;0.40;;;12.30;80.90;;;;;;4989679;28;20050;-80
2022/05/11 11:10:06;;;;;;;1.75;0.40;;;12.20;81.00;;;;;;4988232;28;20054;-79
2022/05/11 11:13:13;;;;;;;0.30;0.30;;;12.20;81.20;;;;;;4975972;28;20054;-79
2022/05/11 11:15:43;;;;;;;0.60;0.28;;;12.20;81.40;;;;;;4933412;29;20060;-80
2022/05/11 11:18:15;;;;;;;1.20;0.40;;;12.20;81.60;;;;;;4933377;29;20052;-80
2022/05/11 11:20:46;;;;;;;1.35;0.40;;;12.30;81.80;;;;;;4919406;29;20099;-79
2022/05/11 11:23:17;;;;;;;0.63;0.20;;;12.40;82.10;;;;;;4941578;29;20055;-80
2022/05/11 11:25:54;;;;;;;1.75;0.17;;;12.80;82.10;;;;;;4933808;29;20063;-80
2022/05/11 11:28:57;;;;;;;1.15;0.40;;;13.10;81.70;;;;;;4932621;29;20051;-80
2022/05/11 11:31:26;;;;;;;1.23;0.20;;;13.40;81.20;;;;;;4879111;29;20049;-80
2022/05/11 11:33:54;;;;;;;1.10;0.35;;;13.90;80.40;;;;;;4892294;29;20061;-78
2022/05/11 11:36:34;;;;;;;0.98;0.50;;;14.30;79.70;;;;;;4912059;29;20060;-79
2022/05/11 11:39:11;;;;;;;0.73;0.25;;;14.60;79.10;;;;;;4915717;29;20044;-80
2022/05/11 11:41:41;;;;;;;0.38;0.30;;;14.80;78.10;;;;;;4900981;29;20059;-79
2022/05/11 11:44:21;;;;;;;0.98;0.30;;;14.90;76.90;;;;;;4895212;29;20064;-80
2022/05/11 11:46:49;;;;;;;1.13;0.43;;;14.90;75.20;;;;;;4902740;29;20106;-81
2022/05/11 11:49:17;;;;;;;1.52;0.32;;;14.80;75.20;;;;;;4924340;29;20059;-80
2022/05/11 11:51:51;;;;;;;1.00;0.50;;;14.80;75.70;;;;;;4955634;28;20051;-81
2022/05/11 11:54:30;;;;;;;0.75;0.40;;;14.90;75.90;;;;;;4968139;28;20054;-81
2022/05/11 11:57:00;;;;;;;0.98;0.30;;;15.00;75.90;;;;;;4965443;28;20047;-88
2022/05/11 11:59:28;;;;;;;0.80;0.40;;;15.00;75.50;;;;;;4951689;29;20062;-78
2022/05/11 12:02:11;;;;;;;3.28;0.73;;;14.90;74.30;;;;;;4951738;29;20055;-81
2022/05/11 12:04:47;;;;;;;2.17;0.52;;;14.80;74.80;;;;;;4952212;29;20047;-81
2022/05/11 12:16:22;;;;;;;1.58;0.35;;;15.00;74.60;;;;;;5012219;28;20121;-80
2022/05/11 12:18:51;;;;;;;0.82;0.40;;;15.10;74.80;;;;;;5028010;28;20094;-79
2022/05/11 12:21:34;;;;;;;0.77;0.32;;;15.30;73.30;;;;;;5031999;28;20340;-79
2022/05/11 12:24:06;;;;;;;1.27;0.50;;;15.30;71.30;;;;;;5052166;28;20048;-80
2022/05/11 12:26:38;;;;;;;2.67;0.50;;;15.30;71.30;;;;;;5052687;28;20045;-80
2022/05/11 12:32:07;;;;;;;1.73;0.65;;;15.70;71.50;;;;;;5052237;28;20044;-78
2022/05/11 12:34:46;;;;;;;1.55;0.60;;;15.90;69.30;;;;;;5052349;28;20127;-79
2022/05/11 12:37:26;;;;;;;3.08;0.73;;;16.20;69.20;;;;;;5051576;28;20045;-79
2022/05/11 12:40:06;;;;;;;0.77;0.40;;;16.40;69.00;;;;;;5050947;28;20395;-79
2022/05/11 12:42:37;;;;;;;2.78;0.80;;;16.70;68.10;;;;;;5061129;28;20033;-79
2022/05/11 12:45:20;;;;;;;2.33;0.30;;;16.70;65.10;;;;;;5055411;28;20045;-79
2022/05/11 12:47:54;;;;;;;1.27;0.47;;;16.60;64.40;;;;;;5054930;28;20300;-79
2022/05/11 12:50:35;;;;;;;4.05;0.40;;;16.80;66.40;;;;;;5055717;28;20321;-79
2022/05/11 12:53:17;;;;;;;2.80;0.60;;;17.50;65.70;;;;;;5054855;28;20051;-79
2022/05/11 12:55:51;;;;;;;2.80;0.70;;;18.00;64.70;;;;;;5055595;28;20044;-79
2022/05/11 12:58:25;;;;;;;1.42;0.50;;;18.50;62.60;;;;;;5044721;28;20048;-81
2022/05/11 13:00:59;;;;;;;4.43;0.68;;;19.00;61.60;;;;;;5056688;28;20049;-80
2022/05/11 13:03:27;;;;;;;2.88;0.60;;;19.40;60.40;;;;;;5056624;28;20051;-79
2022/05/11 13:05:59;;;;;;;3.35;0.70;;;19.70;58.00;;;;;;5054455;28;20402;-80
2022/05/11 13:08:51;;;;;;;3.70;0.67;;;19.80;55.60;;;;;;5055559;28;20037;-79
2022/05/11 13:11:22;;;;;;;1.25;0.38;;;19.90;55.20;;;;;;5037360;28;20406;-79
2022/05/11 13:13:55;;;;;;;5.05;0.68;;;20.00;55.10;;;;;;5036841;28;20075;-79
2022/05/11 13:16:32;;;;;;;3.63;0.82;;;20.00;54.30;;;;;;5036744;28;20525;-81
2022/05/11 13:19:13;;;;;;;2.58;0.60;;;20.00;55.30;;;;;;5069710;28;20057;-80
2022/05/11 13:21:46;;;;;;;2.30;0.70;;;20.20;54.30;;;;;;5058409;28;20491;-80
2022/05/11 13:24:14;;;;;;;4.15;0.90;;;20.30;52.60;;;;;;5055736;28;20498;-81
2022/05/11 13:26:47;;;;;;;2.33;0.82;;;20.30;51.70;;;;;;5074786;28;20056;-81
2022/05/11 13:29:26;;;;;;;3.67;0.95;;;20.30;50.60;;;;;;5034974;28;20061;-81
2022/05/11 13:32:34;;;;;;;3.08;1.00;;;20.50;50.40;;;;;;5046115;28;20505;-81
2022/05/11 13:35:28;;;;;;;1.73;0.65;;;20.30;50.60;;;;;;5034563;28;20057;-81
2022/05/11 13:38:11;;;;;;;4.38;0.70;;;19.90;50.30;;;;;;5046007;28;20064;-81
2022/05/11 13:41:02;;;;;;;2.95;0.68;;;19.30;51.50;;;;;;5036861;28;20041;-82
2022/05/11 13:43:31;;;;;;;3.20;0.88;;;18.90;52.60;;;;;;5054130;28;20493;-80
2022/05/11 13:46:02;;;;;;;2.03;0.70;;;18.50;53.40;;;;;;5053608;28;20409;-80
2022/05/11 13:48:39;;;;;;;8.07;1.25;;;18.00;54.10;;;;;;5053632;28;20045;-81
2022/05/11 13:51:20;;;;;;;4.18;0.95;;;17.40;55.60;;;;;;5034038;28;20060;-81
2022/05/11 13:53:54;;;;;;;4.85;0.88;;;16.40;58.70;;;;;;5034105;28;20060;-80
2022/05/11 13:56:28;;;;;;;3.63;0.80;;;15.60;61.30;;;;;;5047044;28;20494;-79
2022/05/11 13:58:57;;;;;;;4.05;0.70;;;15.00;63.70;;;;;;5053934;28;20055;-80
2022/05/11 14:01:40;;;;;;;5.75;1.13;;;14.50;65.40;;;;;;5054644;28;20032;-80